Lake Panamoka, New York
Current Conditions -  °F | °C
As of 11:04 PM on Sunday 21 Dec 2014 (Local Time) from KHWV Reporting Station
Overcast Overcast  
Wind Chill:   Ceiling: 1600
Heat Index:   Visibility: 7mi
Dew Point:   Wind: 6mph
Humidity: 93%   Direction: 360°N
Pressure: 30.32"   Gusts: NA
Location:  40.8942°N, 72.8763°W
Report Text: KHWV 220404Z AUTO 36005KT 7SM SCT009 OVC016 02/01 A3032 RMK AO2 T00220011 TSNO
Loading
Personal Weather Stations






























Interactive Weather Map New forecast layout! Learn more

10-Day Weather Forecast

Advertisements
Track Severe Weather on mobile